• Join FlightAware (Why Join?)
  • Login
  • US Flag 
06:00AM EST


 

Airport Tracker/Info


-or-


 

Live Flight TrackerFlight Track Log ✈ SKW4801 ✈ 14-May-2012 ✈ KOKC - KSLC

Flight Track Log - Related Links

Times and Time Zones

All times are in EDT time to prevent confusion due to time zone crossing. See the SKW4801 flight status page for this flight to view local times or setup timezone preferences in your user account.

Time Position Orientation Groundspeed Altitude Reporting Facility
EDT Latitude Longitude Course Direction KTS MPH feet Rate Location/Type
07:33AM 35.4122 -97.6300 300° West 165 190 1,800  Level Fort Worth Center
07:38AM 35.6075 -98.0469 297° West 297 342 13,200 2,160 Climbing Kansas City Center
07:39AM 35.6464 -98.1406 296° West 310 357 15,500 2,160 Climbing Kansas City Center
07:40AM 35.6869 -98.2447 298° West 327 376 17,600 1,980 Climbing Kansas City Center
07:41AM 35.7317 -98.3492 296° West 333 383 19,500 1,800 Climbing Kansas City Center
07:42AM 35.7739 -98.4564 295° West 339 390 21,300 1,560 Climbing Kansas City Center
07:43AM 35.8161 -98.5658 297° West 349 402 22,700 1,500 Climbing Kansas City Center
07:44AM 35.8644 -98.6839 296° West 359 413 24,300 1,500 Climbing Kansas City Center
07:45AM 35.9103 -98.8017 297° West 371 427 25,700 1,260 Climbing Kansas City Center
07:46AM 35.9600 -98.9250 297° West 387 445 26,900 1,200 Climbing Kansas City Center
07:47AM 36.0078 -99.0431 296° West 387 445 28,100 1,380 Climbing Kansas City Center
07:48AM 36.0647 -99.1878 295° West 398 458 29,700 1,200 Climbing Kansas City Center
07:49AM 36.1081 -99.3008 295° West 409 471 30,500 1,020 Climbing Kansas City Center
07:50AM 36.1553 -99.4247 296° West 409 471 31,800 720 Climbing Kansas City Center
07:51AM 36.2061 -99.5542 295° West 409 471 32,000 480 Climbing Kansas City Center
07:52AM 36.2550 -99.6833 296° West 409 471 32,800 960 Climbing Kansas City Center
07:53AM 36.3056 -99.8106 295° West 414 476 34,000 1,200 Climbing Kansas City Center
07:54AM 36.3503 -99.9322 295° West 414 476 35,200 1,020 Climbing Kansas City Center
07:55AM 36.3947 -100.0514 296° West 402 463 36,100 720 Climbing Kansas City Center
07:56AM 36.4414 -100.1711 295° West 391 450 36,700 480 Climbing Kansas City Center
07:57AM 36.4875 -100.2958 297° West 391 450 37,100 360 Climbing Kansas City Center
07:58AM 36.5397 -100.4239 294° West 381 438 37,500 300 Climbing Kansas City Center
07:59AM 36.5800 -100.5356 294° West 379 436 37,800 240 Climbing Kansas City Center
08:00AM 36.6256 -100.6633 296° West 392 451 38,000 60 Climbing Kansas City Center
08:01AM 36.6789 -100.8022 295° West 398 458 38,000  Level Kansas City Center
08:02AM 36.7281 -100.9358 295° West 414 476 38,000  Level Kansas City Center
08:03AM 36.7717 -101.0536 295° West 422 486 38,000  Level Kansas City Center
08:04AM 36.8225 -101.1903 294° West 429 494 38,000  Level Kansas City Center
08:05AM 36.8783 -101.3458 295° West 434 499 38,000  Level Kansas City Center
08:06AM 36.9306 -101.4883 294° West 439 505 38,100  Climbing Kansas City Center
08:07AM 36.9786 -101.6253 295° West 439 505 38,000 -60 Descending Kansas City Center
08:09AM 37.0722 -101.8819 293° West 454 522 38,000  Level Albuquerque Center
08:10AM 37.1253 -102.0397 295° West 449 517 38,000  Level Albuquerque Center
08:11AM 37.1750 -102.1744 293° West 444 511 38,000  Level Albuquerque Center
08:12AM 37.2225 -102.3144 295° West 444 511 38,000  Level Albuquerque Center
08:14AM 37.3192 -102.5786 294° West 439 505 38,000  Level Denver Center
08:15AM 37.3747 -102.7347 293° West 439 505 38,000  Level Denver Center
08:16AM 37.4208 -102.8706 294° West 440 506 38,000  Level Denver Center
08:17AM 37.4678 -103.0061 294° West 441 507 38,000  Level Denver Center
08:18AM 37.5228 -103.1642 293° West 441 507 38,000  Level Denver Center
08:19AM 37.5692 -103.3000 294° West 442 509 38,000  Level Denver Center
08:20AM 37.6239 -103.4589 293° West 442 509 38,000  Level Denver Center
08:21AM 37.6697 -103.5964 293° West 445 512 38,000  Level Denver Center
08:22AM 37.7164 -103.7331 293° West 446 513 38,000  Level Denver Center
08:23AM 37.7706 -103.8942 293° West 450 518 38,000  Level Denver Center
08:24AM 37.8158 -104.0308 293° West 448 516 38,000  Level Denver Center
08:25AM 37.8617 -104.1694 293° West 450 518 38,000  Level Denver Center
08:26AM 37.9150 -104.3325 293° West 451 519 38,000  Level Denver Center
08:27AM 37.9617 -104.4728 293° West 452 520 38,000  Level Denver Center
08:28AM 38.0153 -104.6361 293° West 451 519 38,000  Level Denver Center
08:29AM 38.0622 -104.7786 292° West 456 525 38,000  Level Denver Center
08:30AM 38.1083 -104.9217 292° West 457 526 38,000  Level Denver Center
08:31AM 38.1625 -105.0889 292° West 458 527 38,000  Level Denver Center
08:32AM 38.2089 -105.2325 292° West 459 528 38,000  Level Denver Center
08:33AM 38.2556 -105.3767 292° West 460 529 38,000  Level Denver Center
08:34AM 38.3086 -105.5453 292° West 460 529 38,000  Level Denver Center
08:35AM 38.3586 -105.7039 292° West 462 532 38,000  Level Denver Center
08:36AM 38.4003 -105.8364 292° West 463 533 38,000  Level Denver Center
08:37AM 38.4542 -106.0072 291° West 464 534 38,000  Level Denver Center
08:38AM 38.4994 -106.1544 291° West 465 535 38,000  Level Denver Center
08:39AM 38.5492 -106.3169 292° West 463 533 38,000  Level Denver Center
08:40AM 38.5944 -106.4631 291° West 461 531 38,000  Level Denver Center
08:41AM 38.6458 -106.6322 291° West 459 528 38,000  Level Denver Center
08:42AM 38.6894 -106.7786 291° West 459 528 38,000  Level Denver Center
08:44AM 38.7336 -106.9233 291° West 457 526 38,000  Level Denver Center
08:45AM 38.7844 -107.0931 291° West 457 526 38,000  Level Denver Center
08:46AM 38.8278 -107.2383 291° West 457 526 38,000  Level Denver Center
08:47AM 38.8706 -107.3839 291° West 456 525 38,000  Level Denver Center
08:48AM 38.9200 -107.5531 291° West 454 522 38,000  Level Denver Center
08:49AM 38.9617 -107.6944 291° West 445 512 38,000  Level Denver Center
08:50AM 39.0094 -107.8569 291° West 437 503 38,000  Level Denver Center
08:51AM 39.0497 -107.9942 291° West 431 496 38,000  Level Denver Center
08:52AM 39.0897 -108.1317 291° West 428 493 38,000  Level Denver Center
08:53AM 39.1361 -108.2894 290° West 423 487 38,000  Level Denver Center
08:54AM 39.1733 -108.4253 290° West 418 481 38,000  Level Denver Center
08:55AM 39.2119 -108.5608 290° West 419 482 38,000  Level Denver Center
08:56AM 39.2561 -108.7189 290° West 417 480 38,000  Level Denver Center
08:57AM 39.2942 -108.8547 290° West 419 482 38,000 -420 Level Denver Center
08:58AM 39.3317 -108.9903 290° West 416 479 37,200 -1,020 Descending Denver Center
08:59AM 39.3744 -109.1433 290° West 405 466 36,000 -1,080 Descending Denver Center
09:00AM 39.4097 -109.2708 290° West 394 453 35,100 -960 Descending Denver Center
09:01AM 39.4447 -109.3950 289° West 386 444 34,100 -1,080 Descending Denver Center
09:01AM 39.4681 -109.4817 289° West 390 449 33,500 -1,080 Descending Salt Lake Center
09:02AM 39.5031 -109.6108 290° West 394 453 32,500 -780 Descending Salt Lake Center
09:03AM 39.5397 -109.7419 289° West 401 461 32,000 -300 Descending Salt Lake Center
09:04AM 39.5803 -109.8953 289° West 402 463 32,000  Level Salt Lake Center
09:05AM 39.6158 -110.0264 289° West 403 464 32,000  Level Salt Lake Center
09:06AM 39.6517 -110.1614 289° West 409 471 32,000  Level Salt Lake Center
09:07AM 39.6942 -110.3222 289° West 418 481 32,000  Level Salt Lake Center
09:08AM 39.7311 -110.4606 290° West 422 486 32,000  Level Salt Lake Center
09:09AM 39.7714 -110.6017 298° West 430 495 32,000  Level Salt Lake Center
09:10AM 39.8333 -110.7558 297° West 430 495 32,000 -960 Level Salt Lake Center
09:12AM 39.8844 -110.8894 297° West 431 496 30,100 -2,040 Descending Salt Lake Center
09:13AM 39.9347 -111.0203 297° West 426 490 27,900 -2,340 Descending Salt Lake Center
09:14AM 39.9919 -111.1697 296° West 417 480 25,400 -2,400 Descending Salt Lake Center
09:15AM 40.0392 -111.2950 296° West 409 471 23,100 -2,280 Descending Salt Lake Center
09:16AM 40.0861 -111.4225 292° West 388 447 20,800 -2,220 Descending Salt Lake Center
09:16AM 40.1153 -111.5161 298° West 381 438 19,400 -900 Descending Salt Lake Center
09:18AM 40.1764 -111.6669 321° Northwest 366 421 19,000 -600 Descending Salt Lake Center
09:19AM 40.2567 -111.7514 327° Northwest 372 428 18,000 -1,380 Descending Salt Lake Center
09:20AM 40.3711 -111.8492 324° Northwest 363 418 16,000 -1,560 Descending Salt Lake Center
09:21AM 40.4331 -111.9083 328° Northwest 354 407 14,900 -1,380 Descending Salt Lake Center
09:22AM 40.5053 -111.9686 327° Northwest 335 386 13,700 -1,380 Descending Salt Lake Center
09:23AM 40.6011 -112.0519 343° North 335 386 12,000 -1,260 Descending Salt Lake Center
09:24AM 40.6900 -112.0869 356° North 339 390 11,000 -480 Descending Salt Lake Center
09:25AM 40.7867 -112.0956 355° North 292 336 11,000 -480 Level Salt Lake Center
09:26AM 40.8522 -112.1028 360° North 244 281 10,000 -1,500 Descending Salt Lake Center
09:27AM 40.9189 -112.1028 79° East 241 277 8,000 -1,800 Descending Salt Lake Center
09:28AM 40.9297 -112.0253 166° South 215 247 6,400 -1,200 Descending Salt Lake Center
09:29AM 40.8836 -112.0097 174° South 173 199 5,600 -780 Descending Salt Lake Center
09:30AM 40.8417 -112.0042 174° South 151 174 4,900 -660 Descending Salt Lake Center
09:31AM 40.8053 -111.9992 174° South 131 151 4,300 -600 Descending Salt Lake Center